createdAt,value
2018-04-11T00:01:48.765Z,90.00
2018-04-11T00:04:17.102Z,90.00
2018-04-11T00:06:45.418Z,90.00
2018-04-11T00:09:13.766Z,90.10
2018-04-11T00:11:42.083Z,90.20
2018-04-11T00:14:10.419Z,90.20
2018-04-11T00:16:38.752Z,90.50
2018-04-11T00:19:07.104Z,90.30
2018-04-11T00:21:35.413Z,90.40
2018-04-11T00:24:02.988Z,90.40
2018-04-11T00:26:31.301Z,90.50
2018-04-11T00:28:59.637Z,91.00
2018-04-11T00:31:27.963Z,90.50
2018-04-11T00:33:56.293Z,90.50
2018-04-11T00:36:24.604Z,90.40
2018-04-11T00:38:52.960Z,90.50
2018-04-11T00:41:21.265Z,90.50
2018-04-11T00:43:49.594Z,90.50
2018-04-11T00:46:17.917Z,90.50
2018-04-11T00:48:46.259Z,90.60
2018-04-11T00:51:14.579Z,90.70
2018-04-11T00:53:42.909Z,90.70
2018-04-11T00:56:11.222Z,90.70
2018-04-11T00:58:39.569Z,90.90
2018-04-11T01:01:07.883Z,91.00
2018-04-11T01:03:36.215Z,91.10
2018-04-11T01:06:04.525Z,91.00
2018-04-11T01:08:32.857Z,91.10
2018-04-11T01:11:01.165Z,91.10
2018-04-11T01:13:29.477Z,91.10
2018-04-11T01:15:57.805Z,91.20
2018-04-11T01:18:26.127Z,91.20
2018-04-11T01:20:54.464Z,91.20
2018-04-11T01:23:22.789Z,91.10
2018-04-11T01:25:51.117Z,91.00
2018-04-11T01:28:19.442Z,91.00
2018-04-11T01:30:47.833Z,91.00
2018-04-11T01:33:16.160Z,90.90
2018-04-11T01:35:44.501Z,91.00
2018-04-11T01:38:12.814Z,90.90
2018-04-11T01:40:41.149Z,91.00
2018-04-11T01:43:09.466Z,91.00
2018-04-11T01:45:37.805Z,91.00
2018-04-11T01:48:06.125Z,91.00
2018-04-11T01:50:34.465Z,91.10
2018-04-11T01:53:02.800Z,91.00
2018-04-11T01:55:31.141Z,91.00
2018-04-11T01:57:59.453Z,91.10
2018-04-11T02:00:27.786Z,91.20
2018-04-11T02:02:56.099Z,91.20
2018-04-11T02:05:24.433Z,91.20
2018-04-11T02:07:52.746Z,91.10
2018-04-11T02:10:21.073Z,91.00
2018-04-11T02:12:49.387Z,91.10
2018-04-11T02:15:17.729Z,91.10
2018-04-11T02:17:46.039Z,91.10
2018-04-11T02:20:14.375Z,91.10
2018-04-11T02:22:42.682Z,91.00
2018-04-11T02:25:11.022Z,91.00
2018-04-11T02:27:39.329Z,91.00
2018-04-11T02:30:07.657Z,91.00
2018-04-11T02:32:35.975Z,91.00
2018-04-11T02:35:04.315Z,90.90
2018-04-11T02:37:32.636Z,90.90
2018-04-11T02:40:00.969Z,90.90
2018-04-11T02:42:29.284Z,91.00
2018-04-11T02:44:57.621Z,90.90
2018-04-11T02:47:25.933Z,90.90
2018-04-11T03:01:19.626Z,91.10
2018-04-11T03:03:47.939Z,91.10
2018-04-11T03:06:16.280Z,91.10
2018-04-11T03:08:44.597Z,91.00
2018-04-11T03:11:12.937Z,91.00
2018-04-11T03:13:41.250Z,91.00
2018-04-11T03:16:09.590Z,90.90
2018-04-11T03:18:37.902Z,91.00
2018-04-11T03:21:06.242Z,91.00
2018-04-11T03:23:34.550Z,91.00
2018-04-11T03:26:02.889Z,91.10
2018-04-11T03:28:31.208Z,91.10
2018-04-11T03:30:59.555Z,91.00
2018-04-11T03:33:27.881Z,91.00
2018-04-11T03:35:56.223Z,91.00
2018-04-11T03:38:24.533Z,90.90
2018-04-11T03:40:52.877Z,91.00
2018-04-11T03:43:21.189Z,91.60
2018-04-11T03:45:49.517Z,91.60
2018-04-11T03:48:17.825Z,91.70
2018-04-11T03:50:46.209Z,91.70
2018-04-11T03:53:14.514Z,91.70
2018-04-11T03:55:42.851Z,91.60
2018-04-11T03:58:11.161Z,91.50
2018-04-11T04:00:39.508Z,91.50
2018-04-11T04:03:07.818Z,91.40
2018-04-11T04:05:36.135Z,91.40
2018-04-11T04:08:04.465Z,91.80
2018-04-11T04:10:32.776Z,91.40
2018-04-11T04:13:01.103Z,91.40
2018-04-11T04:15:41.225Z,91.40
2018-04-11T04:18:21.386Z,91.40
2018-04-11T04:20:49.775Z,91.80
2018-04-11T04:23:18.134Z,91.40
2018-04-11T04:25:46.459Z,91.50
2018-04-11T04:28:14.785Z,91.40
2018-04-11T04:30:43.093Z,91.30
2018-04-11T04:33:11.422Z,91.30
2018-04-11T04:35:39.739Z,91.20
2018-04-11T04:38:08.069Z,91.20
2018-04-11T04:40:36.384Z,91.10
2018-04-11T04:43:04.726Z,91.10
2018-04-11T04:45:33.041Z,91.20
2018-04-11T04:48:01.366Z,91.10
2018-04-11T04:50:29.674Z,91.10
2018-04-11T04:52:58.002Z,91.10
2018-04-11T04:55:26.310Z,91.10
2018-04-11T04:57:54.633Z,91.20
2018-04-11T05:00:22.937Z,91.10
2018-04-11T05:02:51.261Z,91.00
2018-04-11T05:05:19.574Z,91.00
2018-04-11T05:07:47.903Z,91.20
2018-04-11T05:10:16.209Z,91.10
2018-04-11T05:12:44.542Z,91.10
2018-04-11T05:15:12.875Z,91.10
2018-04-11T05:17:41.210Z,91.00
2018-04-11T05:20:09.526Z,90.90
2018-04-11T05:22:37.857Z,90.70
2018-04-11T05:25:06.184Z,90.50
2018-04-11T05:27:34.517Z,90.40
2018-04-11T05:30:02.826Z,90.30
2018-04-11T05:32:31.159Z,90.40
2018-04-11T05:34:59.466Z,90.10
2018-04-11T05:37:27.793Z,90.10
2018-04-11T05:39:56.129Z,90.10
2018-04-11T05:42:24.480Z,90.10
2018-04-11T05:44:52.797Z,90.30
2018-04-11T05:47:21.142Z,90.20
2018-04-11T05:49:49.458Z,90.20
2018-04-11T05:52:17.758Z,90.20
2018-04-11T05:54:46.101Z,90.30
2018-04-11T05:57:14.404Z,90.40
2018-04-11T05:59:42.739Z,90.30
2018-04-11T06:02:11.046Z,90.20
2018-04-11T06:04:38.620Z,90.20
2018-04-11T06:07:06.932Z,90.20
2018-04-11T06:09:35.258Z,90.30
2018-04-11T06:12:03.571Z,90.30
2018-04-11T06:14:31.907Z,90.40
2018-04-11T06:17:00.286Z,90.40
2018-04-11T06:19:28.617Z,90.30
2018-04-11T06:21:56.948Z,90.50
2018-04-11T06:24:25.366Z,90.10
2018-04-11T06:26:53.780Z,90.10
2018-04-11T06:29:22.218Z,90.00
2018-04-11T06:31:50.525Z,89.90
2018-04-11T06:34:18.874Z,88.40
2018-04-11T06:36:47.206Z,88.20
2018-04-11T06:39:15.550Z,88.00
2018-04-11T06:41:43.867Z,87.90
2018-04-11T06:44:12.193Z,87.70
2018-04-11T06:46:40.502Z,87.00
2018-04-11T06:49:08.842Z,86.40
2018-04-11T06:51:37.157Z,85.50
2018-04-11T06:54:05.505Z,84.50
2018-04-11T06:56:33.819Z,83.50
2018-04-11T06:59:02.153Z,82.50
2018-04-11T07:01:30.471Z,81.90
2018-04-11T07:03:58.805Z,81.30
2018-04-11T07:06:27.115Z,80.80
2018-04-11T07:08:55.450Z,80.50
2018-04-11T07:11:23.765Z,80.10
2018-04-11T07:13:52.099Z,79.60
2018-04-11T07:16:20.423Z,78.90
2018-04-11T07:18:48.753Z,78.20
2018-04-11T07:21:17.067Z,77.60
2018-04-11T07:23:45.415Z,77.20
2018-04-11T07:26:13.734Z,76.20
2018-04-11T07:28:42.074Z,74.80
2018-04-11T07:31:10.395Z,74.20
2018-04-11T07:33:38.710Z,74.00
2018-04-11T07:36:07.056Z,73.50
2018-04-11T07:38:35.372Z,73.30
2018-04-11T07:41:03.714Z,73.30
2018-04-11T07:43:32.024Z,73.30
2018-04-11T07:46:00.387Z,73.00
2018-04-11T07:48:28.711Z,72.40
2018-04-11T07:50:57.049Z,71.90
2018-04-11T07:53:25.365Z,70.80
2018-04-11T07:55:53.693Z,70.40
2018-04-11T07:58:22.001Z,70.80
2018-04-11T08:00:50.347Z,69.80
2018-04-11T08:03:19.487Z,68.00
2018-04-11T08:05:47.790Z,66.80
2018-04-11T08:08:16.116Z,66.10
2018-04-11T08:10:44.471Z,65.40
2018-04-11T08:13:12.782Z,65.00
2018-04-11T08:15:41.114Z,65.00
2018-04-11T08:18:09.473Z,65.00
2018-04-11T08:20:37.817Z,65.20
2018-04-11T08:23:06.136Z,65.50
2018-04-11T08:25:34.478Z,65.40
2018-04-11T08:28:02.794Z,65.60
2018-04-11T08:30:31.128Z,66.50
2018-04-11T08:32:59.453Z,67.20
2018-04-11T08:35:27.791Z,67.20
2018-04-11T08:37:56.105Z,67.00
2018-04-11T08:40:24.442Z,67.90
2018-04-11T08:42:52.758Z,68.40
2018-04-11T08:45:21.095Z,68.20
2018-04-11T08:47:49.405Z,68.60
2018-04-11T08:50:17.743Z,68.30
2018-04-11T08:52:46.056Z,67.80
2018-04-11T08:55:14.390Z,68.30
2018-04-11T08:57:42.702Z,69.40
2018-04-11T09:00:11.066Z,70.40
2018-04-11T09:02:39.384Z,71.30
2018-04-11T09:05:07.723Z,72.20
2018-04-11T09:07:36.037Z,72.70
2018-04-11T09:10:04.376Z,73.20
2018-04-11T09:12:32.691Z,73.10
2018-04-11T09:15:01.055Z,73.30
2018-04-11T09:17:29.367Z,72.10
2018-04-11T09:19:57.705Z,72.30
2018-04-11T09:22:26.042Z,72.60
2018-04-11T09:24:54.355Z,72.60
2018-04-11T09:27:22.698Z,72.10
2018-04-11T09:29:51.019Z,72.30
2018-04-11T09:32:19.350Z,72.40
2018-04-11T09:34:47.657Z,70.80
2018-04-11T09:37:16.002Z,70.00
2018-04-11T09:39:44.318Z,69.90
2018-04-11T09:42:12.705Z,69.10
2018-04-11T09:44:41.020Z,67.50
2018-04-11T09:47:09.354Z,67.40
2018-04-11T09:49:37.670Z,67.70
2018-04-11T09:52:06.011Z,67.70
2018-04-11T09:54:34.343Z,69.10
2018-04-11T09:57:02.677Z,68.50
2018-04-11T09:59:30.998Z,68.10
2018-04-11T10:01:59.330Z,67.80
2018-04-11T10:04:27.657Z,68.20
2018-04-11T10:06:56.012Z,68.40
2018-04-11T10:09:24.344Z,68.50
2018-04-11T10:11:52.695Z,68.60
2018-04-11T10:14:21.319Z,68.90
2018-04-11T10:16:50.371Z,68.90
2018-04-11T10:19:18.693Z,69.20
2018-04-11T10:21:47.025Z,70.80
2018-04-11T10:24:15.345Z,70.50
2018-04-11T10:26:43.685Z,70.80
2018-04-11T10:29:11.989Z,71.60
2018-04-11T10:31:40.350Z,72.50
2018-04-11T10:34:08.665Z,73.30
2018-04-11T10:36:37.006Z,73.50
2018-04-11T10:39:05.326Z,73.70
2018-04-11T10:41:33.661Z,73.90
2018-04-11T10:44:01.980Z,74.10
2018-04-11T10:46:30.323Z,73.60
2018-04-11T10:48:58.636Z,73.00
2018-04-11T10:51:26.970Z,72.80
2018-04-11T10:53:55.287Z,73.00
2018-04-11T10:56:23.631Z,72.70
2018-04-11T10:58:51.974Z,72.60
2018-04-11T11:01:20.287Z,73.30
2018-04-11T11:03:48.617Z,73.30
2018-04-11T11:06:16.927Z,72.60
2018-04-11T11:08:45.260Z,72.40
2018-04-11T11:11:13.629Z,71.90
2018-04-11T11:13:41.970Z,71.40
2018-04-11T11:16:10.281Z,71.10
2018-04-11T11:18:38.649Z,69.60
2018-04-11T11:21:06.996Z,67.50
2018-04-11T11:23:35.331Z,66.90
2018-04-11T11:26:03.645Z,66.50
2018-04-11T11:28:31.983Z,66.10
2018-04-11T11:31:00.298Z,66.00
2018-04-11T11:33:28.637Z,64.00
2018-04-11T11:35:56.952Z,64.00
2018-04-11T11:38:25.296Z,61.90
2018-04-11T11:40:53.609Z,60.40
2018-04-11T11:43:21.939Z,59.50
2018-04-11T11:45:50.254Z,59.60
2018-04-11T11:48:18.621Z,57.70
2018-04-11T11:50:46.935Z,55.20
2018-04-11T11:53:15.261Z,54.60
2018-04-11T11:55:43.574Z,54.60
2018-04-11T11:58:11.919Z,52.60
2018-04-11T12:00:40.237Z,52.00
2018-04-11T12:03:08.571Z,50.90
2018-04-11T12:05:36.883Z,50.50
2018-04-11T12:08:05.211Z,50.10
2018-04-11T12:10:33.526Z,49.30
2018-04-11T12:13:01.859Z,47.60
2018-04-11T12:15:30.176Z,47.40
2018-04-11T12:17:58.514Z,47.10
2018-04-11T12:20:26.829Z,47.40
2018-04-11T12:22:55.161Z,47.70
2018-04-11T12:25:23.484Z,47.30
2018-04-11T12:27:51.821Z,46.40
2018-04-11T12:30:20.131Z,46.10
2018-04-11T12:32:48.473Z,46.10
2018-04-11T12:35:16.796Z,44.80
2018-04-11T12:37:45.129Z,45.30
2018-04-11T12:40:13.438Z,46.00
2018-04-11T12:42:41.801Z,46.10
2018-04-11T12:45:10.116Z,45.70
2018-04-11T12:47:38.428Z,45.10
2018-04-11T12:50:06.750Z,45.70
2018-04-11T12:52:35.071Z,46.00
2018-04-11T12:55:03.408Z,46.00
2018-04-11T12:57:31.718Z,46.60
2018-04-11T13:00:00.047Z,47.30
2018-04-11T13:02:28.361Z,46.80
2018-04-11T13:04:56.702Z,47.20
2018-04-11T13:07:25.018Z,46.70
2018-04-11T13:09:53.347Z,47.10
2018-04-11T13:12:21.664Z,46.00
2018-04-11T13:14:49.997Z,44.80
2018-04-11T13:17:18.996Z,43.90
2018-04-11T13:19:47.322Z,43.50
2018-04-11T13:22:15.639Z,44.10
2018-04-11T13:24:43.977Z,43.00
2018-04-11T13:27:12.282Z,44.00
2018-04-11T13:29:40.613Z,44.30
2018-04-11T13:32:08.925Z,44.70
2018-04-11T13:34:37.254Z,45.20
2018-04-11T13:37:05.563Z,46.60
2018-04-11T13:39:33.902Z,46.30
2018-04-11T13:42:02.217Z,46.20
2018-04-11T13:44:30.566Z,47.30
2018-04-11T13:46:58.883Z,46.70
2018-04-11T13:49:27.216Z,46.30
2018-04-11T13:51:55.528Z,46.30
2018-04-11T13:54:23.910Z,45.80
2018-04-11T13:56:52.233Z,45.70
2018-04-11T13:59:20.570Z,44.70
2018-04-11T14:01:48.893Z,47.20
2018-04-11T14:04:17.225Z,46.90
2018-04-11T14:06:45.546Z,47.40
2018-04-11T14:09:13.875Z,46.20
2018-04-11T14:11:42.186Z,46.80
2018-04-11T14:14:10.517Z,46.90
2018-04-11T14:16:38.845Z,46.70
2018-04-11T14:19:07.185Z,45.80
2018-04-11T14:21:35.520Z,44.90
2018-04-11T14:24:03.853Z,45.20
2018-04-11T14:26:32.175Z,46.10
2018-04-11T14:29:00.482Z,45.70
2018-04-11T14:31:28.368Z,46.20
2018-04-11T14:33:56.683Z,46.30
2018-04-11T14:36:25.020Z,46.10
2018-04-11T14:38:53.334Z,45.80
2018-04-11T14:41:21.197Z,45.60
2018-04-11T14:43:49.515Z,46.00
2018-04-11T14:46:17.390Z,47.00
2018-04-11T14:48:45.236Z,47.00
2018-04-11T14:51:13.567Z,47.60
2018-04-11T14:53:41.893Z,48.50
2018-04-11T14:56:10.233Z,49.30
2018-04-11T14:58:38.551Z,49.30
2018-04-11T15:01:07.229Z,49.80
2018-04-11T15:03:35.642Z,50.20
2018-04-11T15:06:04.011Z,51.20
2018-04-11T15:08:32.323Z,51.00
2018-04-11T15:11:00.656Z,51.40
2018-04-11T15:13:28.969Z,50.90
2018-04-11T15:15:57.359Z,50.70
2018-04-11T15:18:25.631Z,50.50
2018-04-11T15:20:53.968Z,49.50
2018-04-11T15:23:22.291Z,48.90
2018-04-11T15:25:50.161Z,48.70
2018-04-11T15:28:18.019Z,48.20
2018-04-11T15:30:45.890Z,46.90
2018-04-11T15:33:13.737Z,47.00
2018-04-11T15:35:41.606Z,47.60
2018-04-11T15:38:09.458Z,48.30
2018-04-11T15:40:37.327Z,48.50
2018-04-11T15:43:05.173Z,48.60
2018-04-11T15:45:33.043Z,49.10
2018-04-11T15:48:00.882Z,49.60
2018-04-11T15:50:28.772Z,49.80
2018-04-11T15:52:56.620Z,49.90
2018-04-11T15:55:24.488Z,50.00
2018-04-11T15:57:52.349Z,50.40
2018-04-11T16:00:20.213Z,50.90
2018-04-11T16:02:48.057Z,51.20
2018-04-11T16:05:15.946Z,51.80
2018-04-11T16:07:43.812Z,52.30
2018-04-11T16:10:11.654Z,52.60
2018-04-11T16:12:39.533Z,52.70
2018-04-11T16:15:07.380Z,52.80
2018-04-11T16:17:35.255Z,53.00
2018-04-11T16:20:03.573Z,53.30
2018-04-11T16:22:31.452Z,53.60
2018-04-11T16:24:59.767Z,53.90
2018-04-11T16:27:28.104Z,54.10
2018-04-11T16:29:56.498Z,54.10
2018-04-11T16:32:24.834Z,54.20
2018-04-11T16:34:53.149Z,54.70
2018-04-11T16:37:21.479Z,55.20
2018-04-11T16:39:49.793Z,56.00
2018-04-11T16:42:18.139Z,57.30
2018-04-11T16:44:46.447Z,57.50
2018-04-11T16:47:14.779Z,58.40
2018-04-11T16:49:43.084Z,59.10
2018-04-11T16:52:10.948Z,59.90
2018-04-11T16:54:39.261Z,60.70
2018-04-11T16:57:07.597Z,61.40
2018-04-11T16:59:35.913Z,61.70
2018-04-11T17:02:04.250Z,61.50
2018-04-11T17:04:32.615Z,61.80
2018-04-11T17:07:00.951Z,62.50
2018-04-11T17:09:29.281Z,62.10
2018-04-11T17:11:57.662Z,60.70
2018-04-11T17:14:25.513Z,59.30
2018-04-11T17:16:53.851Z,59.40
2018-04-11T17:19:22.166Z,58.10
2018-04-11T17:22:02.194Z,57.80
2018-04-11T17:24:42.439Z,58.20
2018-04-11T17:27:16.235Z,58.70
2018-04-11T17:29:56.474Z,59.50
2018-04-11T17:32:24.815Z,59.70
2018-04-11T17:34:53.137Z,60.60
2018-04-11T17:37:21.487Z,61.70
2018-04-11T17:39:49.325Z,63.10
2018-04-11T17:42:17.662Z,64.40
2018-04-11T17:44:46.012Z,65.60
2018-04-11T17:47:14.330Z,66.80
2018-04-11T17:49:42.674Z,67.50
2018-04-11T17:52:10.989Z,68.50
2018-04-11T17:57:13.077Z,70.70
2018-04-11T17:59:41.436Z,71.70
2018-04-11T18:02:09.765Z,72.30
2018-04-11T18:04:38.111Z,72.60
2018-04-11T18:07:06.439Z,73.20
2018-04-11T18:09:34.307Z,73.70
2018-04-11T18:12:02.626Z,74.20
2018-04-11T18:14:30.969Z,74.70
2018-04-11T18:16:59.357Z,75.00
2018-04-11T18:19:27.693Z,75.60
2018-04-11T18:21:56.072Z,76.80
2018-04-11T18:24:24.495Z,76.70
2018-04-11T18:26:52.839Z,77.10
2018-04-11T18:29:19.938Z,77.00
2018-04-11T18:31:48.262Z,77.60
2018-04-11T18:34:16.601Z,78.00
2018-04-11T18:36:44.922Z,78.40
2018-04-11T18:39:13.270Z,79.00
2018-04-11T18:41:41.148Z,79.60
2018-04-11T18:44:09.485Z,80.00
2018-04-11T18:46:37.810Z,80.10
2018-04-11T18:49:06.158Z,80.40
2018-04-11T18:51:34.481Z,80.90
2018-04-11T18:54:02.830Z,81.20
2018-04-11T18:56:31.151Z,81.40
2018-04-11T18:58:59.487Z,81.50
2018-04-11T19:01:27.805Z,81.60
2018-04-11T19:03:56.154Z,82.00
2018-04-11T19:06:24.490Z,82.30
2018-04-11T19:08:52.825Z,82.20
2018-04-11T19:11:21.139Z,82.20
2018-04-11T19:13:49.481Z,82.40
2018-04-11T19:16:17.802Z,82.50
2018-04-11T19:18:46.149Z,82.80
2018-04-11T19:21:14.474Z,83.10
2018-04-11T19:23:42.797Z,83.20
2018-04-11T19:26:11.141Z,83.40
2018-04-11T19:28:39.477Z,84.50
2018-04-11T19:31:07.838Z,83.80
2018-04-11T19:33:36.164Z,83.80
2018-04-11T19:36:04.505Z,83.90
2018-04-11T19:38:32.829Z,83.90
2018-04-11T19:41:01.177Z,84.20
2018-04-11T19:43:29.504Z,84.40
2018-04-11T19:45:57.890Z,85.90
2018-04-11T19:48:26.205Z,86.10
2018-04-11T19:50:54.545Z,86.20
2018-04-11T19:53:22.869Z,86.40
2018-04-11T19:55:51.265Z,86.60
2018-04-11T19:58:19.547Z,86.60
2018-04-11T20:00:47.887Z,86.60
2018-04-11T20:03:16.198Z,86.60
2018-04-11T20:05:44.546Z,86.40
2018-04-11T20:08:12.908Z,86.70
2018-04-11T20:10:41.251Z,86.60
2018-04-11T20:13:09.098Z,86.60
2018-04-11T20:15:37.443Z,86.80
2018-04-11T20:18:05.758Z,86.70
2018-04-11T20:20:34.095Z,86.70
2018-04-11T20:23:02.426Z,86.80
2018-04-11T20:25:30.770Z,87.20
2018-04-11T20:27:59.091Z,87.60
2018-04-11T20:30:27.426Z,87.70
2018-04-11T20:32:55.745Z,87.70
2018-04-11T20:35:24.091Z,87.70
2018-04-11T20:37:52.406Z,87.60
2018-04-11T20:40:21.561Z,87.40
2018-04-11T20:42:49.957Z,87.70
2018-04-11T20:45:18.270Z,88.10
2018-04-11T20:47:46.591Z,88.40
2018-04-11T20:50:14.931Z,88.60
2018-04-11T20:52:43.295Z,88.50
2018-04-11T20:55:11.657Z,88.70
2018-04-11T20:57:39.974Z,88.50
2018-04-11T21:00:08.318Z,88.60
2018-04-11T21:02:36.639Z,88.50
2018-04-11T21:05:04.957Z,88.40
2018-04-11T21:07:33.296Z,88.70
2018-04-11T21:10:01.610Z,88.80
2018-04-11T21:12:29.958Z,88.60
2018-04-11T21:14:58.282Z,88.10
2018-04-11T21:17:26.634Z,87.80
2018-04-11T21:19:54.954Z,87.80
2018-04-11T21:22:23.313Z,87.90
2018-04-11T21:24:51.632Z,87.70
2018-04-11T21:27:19.980Z,87.50
2018-04-11T21:29:48.307Z,87.20
2018-04-11T21:32:16.650Z,87.30
2018-04-11T21:34:45.697Z,87.20
2018-04-11T21:37:14.046Z,87.30
2018-04-11T21:39:42.373Z,87.20
2018-04-11T21:42:10.717Z,87.10
2018-04-11T21:44:39.038Z,87.00
2018-04-11T21:47:07.397Z,87.20
2018-04-11T21:49:35.711Z,87.20
2018-04-11T21:52:04.052Z,86.60
2018-04-11T21:54:32.369Z,86.60
2018-04-11T21:57:00.711Z,86.60
2018-04-11T21:59:29.035Z,86.50
2018-04-11T22:01:56.892Z,86.60
2018-04-11T22:04:25.211Z,86.20
2018-04-11T22:06:53.558Z,86.50
2018-04-11T22:09:21.396Z,86.60
2018-04-11T22:11:49.730Z,86.70
2018-04-11T22:14:18.086Z,86.50
2018-04-11T22:16:46.470Z,87.00
2018-04-11T22:19:14.794Z,86.50
2018-04-11T22:21:43.134Z,86.60
2018-04-11T22:24:11.464Z,87.50
2018-04-11T22:26:39.798Z,87.20
2018-04-11T22:29:08.121Z,87.30
2018-04-11T22:31:36.466Z,87.70
2018-04-11T22:34:04.777Z,88.00
2018-04-11T22:36:33.123Z,88.00
2018-04-11T22:39:01.451Z,88.00
2018-04-11T22:41:29.784Z,87.90
2018-04-11T22:43:58.104Z,87.80
2018-04-11T22:46:25.969Z,87.80
2018-04-11T22:48:54.289Z,88.10
2018-04-11T22:51:22.611Z,88.20
2018-04-11T22:53:50.945Z,88.20
2018-04-11T22:56:19.262Z,88.20
2018-04-11T22:58:47.605Z,88.50
2018-04-11T23:01:15.924Z,88.80
2018-04-11T23:03:44.274Z,89.10
2018-04-11T23:06:12.117Z,89.40
2018-04-11T23:08:40.459Z,90.00
2018-04-11T23:11:08.778Z,90.20
2018-04-11T23:13:37.116Z,90.30
2018-04-11T23:16:05.431Z,90.40
2018-04-11T23:18:33.797Z,90.80
2018-04-11T23:21:02.106Z,90.30
2018-04-11T23:23:30.445Z,90.30
2018-04-11T23:25:58.288Z,90.30
2018-04-11T23:28:26.157Z,90.30
2018-04-11T23:30:54.470Z,90.30
2018-04-11T23:33:22.811Z,90.20
2018-04-11T23:35:50.365Z,90.20
2018-04-11T23:38:18.704Z,89.90
2018-04-11T23:40:47.020Z,90.00
2018-04-11T23:43:15.358Z,90.10
2018-04-11T23:45:43.675Z,90.10
2018-04-11T23:48:12.018Z,90.20
2018-04-11T23:50:39.860Z,90.30
2018-04-11T23:53:08.189Z,90.30
2018-04-11T23:55:36.501Z,90.30
2018-04-11T23:58:04.846Z,90.60
